createdAt,value
2019-04-27T00:01:11.508Z,18.50
2019-04-27T00:03:54.036Z,18.50
2019-04-27T00:06:24.077Z,18.40
2019-04-27T00:08:57.131Z,18.40
2019-04-27T00:11:48.874Z,18.40
2019-04-27T00:14:18.307Z,18.30
2019-04-27T00:17:12.939Z,18.30
2019-04-27T00:19:55.664Z,18.40
2019-04-27T00:22:29.310Z,18.30
2019-04-27T00:24:58.586Z,18.20
2019-04-27T00:27:28.549Z,18.20
2019-04-27T00:29:58.086Z,18.10
2019-04-27T00:32:27.798Z,18.10
2019-04-27T00:34:57.057Z,18.00
2019-04-27T00:37:45.006Z,18.00
2019-04-27T00:40:17.283Z,17.90
2019-04-27T00:42:47.482Z,17.90
2019-04-27T00:45:17.159Z,17.80
2019-04-27T00:47:56.581Z,17.70
2019-04-27T00:50:18.744Z,17.60
2019-04-27T00:52:48.065Z,17.60
2019-04-27T00:55:18.035Z,17.50
2019-04-27T00:58:06.537Z,17.50
2019-04-27T01:01:04.370Z,17.40
2019-04-27T01:03:39.889Z,17.40
2019-04-27T01:06:09.536Z,17.30
2019-04-27T01:08:39.128Z,17.30
2019-04-27T01:11:08.959Z,17.30
2019-04-27T01:13:38.987Z,17.30
2019-04-27T01:16:10.458Z,17.20
2019-04-27T01:18:40.940Z,17.20
2019-04-27T01:21:10.289Z,17.10
2019-04-27T01:23:39.882Z,17.10
2019-04-27T01:26:30.681Z,16.90
2019-04-27T01:29:10.644Z,16.90
2019-04-27T01:31:40.643Z,16.80
2019-04-27T01:34:10.204Z,16.80
2019-04-27T01:36:40.258Z,16.80
2019-04-27T01:39:13.094Z,16.70
2019-04-27T01:41:43.045Z,16.70
2019-04-27T01:44:12.904Z,16.70
2019-04-27T01:46:42.639Z,16.70
2019-04-27T01:49:12.221Z,16.60
2019-04-27T01:51:41.459Z,16.50
2019-04-27T01:54:13.103Z,16.50
2019-04-27T01:56:43.110Z,16.50
2019-04-27T01:59:12.714Z,16.30
2019-04-27T02:01:52.568Z,16.40
2019-04-27T02:05:01.705Z,16.40
2019-04-27T02:07:30.816Z,16.30
2019-04-27T02:10:00.883Z,16.30
2019-04-27T02:12:31.514Z,16.30
2019-04-27T02:15:00.878Z,16.30
2019-04-27T02:17:30.501Z,16.20
2019-04-27T02:19:59.721Z,16.10
2019-04-27T02:22:29.674Z,16.10
2019-04-27T02:24:59.423Z,16.10
2019-04-27T02:27:30.851Z,16.10
2019-04-27T02:30:34.680Z,16.10
2019-04-27T02:33:22.065Z,16.20
2019-04-27T02:35:51.871Z,16.00
2019-04-27T02:38:21.155Z,16.10
2019-04-27T02:40:59.859Z,16.10
2019-04-27T02:43:39.947Z,16.00
2019-04-27T02:46:09.740Z,16.00
2019-04-27T02:48:52.998Z,15.90
2019-04-27T02:51:12.292Z,15.90
2019-04-27T02:53:59.790Z,15.90
2019-04-27T02:56:30.521Z,15.80
2019-04-27T02:58:59.761Z,15.80
2019-04-27T03:01:32.107Z,15.70
2019-04-27T03:04:01.426Z,15.70
2019-04-27T03:06:30.714Z,15.60
2019-04-27T03:09:00.857Z,15.60
2019-04-27T03:11:31.811Z,15.60
2019-04-27T03:14:29.682Z,15.60
2019-04-27T03:17:10.910Z,15.60
2019-04-27T03:19:52.389Z,15.50
2019-04-27T03:22:29.559Z,15.50
2019-04-27T03:25:32.504Z,15.40
2019-04-27T03:28:20.187Z,15.40
2019-04-27T03:30:52.030Z,15.50
2019-04-27T03:33:22.705Z,15.40
2019-04-27T03:35:52.943Z,15.40
2019-04-27T03:38:22.604Z,15.50
2019-04-27T03:40:52.934Z,15.40
2019-04-27T03:43:24.618Z,15.50
2019-04-27T03:45:54.041Z,15.50
2019-04-27T03:48:23.334Z,15.30
2019-04-27T03:51:11.569Z,15.30
2019-04-27T03:53:46.629Z,15.20
2019-04-27T03:56:44.695Z,15.30
2019-04-27T03:59:23.989Z,15.30
2019-04-27T04:01:53.301Z,15.30
2019-04-27T04:04:22.580Z,15.40
2019-04-27T04:06:52.810Z,15.30
2019-04-27T04:09:40.151Z,15.10
2019-04-27T04:12:20.470Z,15.10
2019-04-27T04:14:50.476Z,15.20
2019-04-27T04:17:22.009Z,15.20
2019-04-27T04:19:57.615Z,15.20
2019-04-27T04:22:23.160Z,15.20
2019-04-27T04:24:53.092Z,15.20
2019-04-27T04:27:23.151Z,15.20
2019-04-27T04:29:53.150Z,15.10
2019-04-27T04:32:23.429Z,15.10
2019-04-27T04:34:53.752Z,15.00
2019-04-27T04:37:22.961Z,15.00
2019-04-27T04:39:53.686Z,15.10
2019-04-27T04:42:33.319Z,15.00
2019-04-27T04:45:30.821Z,15.00
2019-04-27T04:48:03.719Z,14.90
2019-04-27T04:50:33.243Z,14.90
2019-04-27T04:53:02.716Z,14.80
2019-04-27T04:55:32.013Z,14.80
2019-04-27T04:58:01.886Z,14.60
2019-04-27T05:00:31.461Z,14.70
2019-04-27T05:03:00.795Z,14.60
2019-04-27T05:05:30.000Z,14.60
2019-04-27T05:08:00.725Z,14.60
2019-04-27T05:10:31.279Z,14.60
2019-04-27T05:13:01.451Z,14.60
2019-04-27T05:15:30.730Z,14.50
2019-04-27T05:18:00.055Z,14.50
2019-04-27T05:20:48.701Z,14.50
2019-04-27T05:23:18.733Z,14.50
2019-04-27T05:25:49.276Z,14.50
2019-04-27T05:28:19.473Z,14.50
2019-04-27T05:30:49.069Z,14.50
2019-04-27T05:33:19.148Z,14.40
2019-04-27T05:35:49.371Z,14.40
2019-04-27T05:38:19.431Z,14.40
2019-04-27T05:40:49.989Z,14.40
2019-04-27T05:43:25.587Z,14.50
2019-04-27T05:46:35.573Z,14.30
2019-04-27T05:49:09.361Z,14.40
2019-04-27T05:51:41.718Z,14.30
2019-04-27T05:54:09.824Z,14.20
2019-04-27T05:56:39.145Z,14.10
2019-04-27T05:59:09.170Z,14.10
2019-04-27T06:01:39.124Z,14.10
2019-04-27T06:04:09.136Z,14.00
2019-04-27T06:06:39.837Z,14.00
2019-04-27T06:09:10.089Z,14.00
2019-04-27T06:11:40.145Z,13.90
2019-04-27T06:14:09.808Z,13.70
2019-04-27T06:16:39.426Z,13.80
2019-04-27T06:19:09.736Z,13.80
2019-04-27T06:21:40.160Z,13.80
2019-04-27T06:24:09.582Z,13.70
2019-04-27T06:26:39.999Z,13.80
2019-04-27T06:29:10.136Z,13.70
2019-04-27T06:31:39.881Z,13.60
2019-04-27T06:34:09.854Z,13.60
2019-04-27T06:36:39.919Z,13.60
2019-04-27T06:39:10.026Z,13.70
2019-04-27T06:41:40.352Z,13.50
2019-04-27T06:44:11.318Z,13.40
2019-04-27T06:46:40.810Z,13.30
2019-04-27T06:49:11.127Z,13.40
2019-04-27T06:51:41.033Z,13.40
2019-04-27T06:54:10.531Z,13.40
2019-04-27T06:56:40.495Z,13.50
2019-04-27T06:59:09.738Z,13.50
2019-04-27T07:01:39.170Z,13.50
2019-04-27T07:04:10.828Z,13.40
2019-04-27T07:06:52.888Z,13.50
2019-04-27T07:09:11.660Z,13.10
2019-04-27T07:11:41.073Z,13.20
2019-04-27T07:14:11.697Z,13.30
2019-04-27T07:16:41.423Z,13.20
2019-04-27T07:19:10.815Z,13.20
2019-04-27T07:21:40.286Z,13.40
2019-04-27T07:24:09.594Z,13.30
2019-04-27T07:26:39.317Z,13.30
2019-04-27T07:29:09.539Z,13.40
2019-04-27T07:31:40.006Z,13.30
2019-04-27T07:34:10.005Z,13.40
2019-04-27T07:36:39.635Z,13.30
2019-04-27T07:39:11.555Z,13.30
2019-04-27T07:41:41.073Z,13.20
2019-04-27T07:44:22.668Z,13.20
2019-04-27T07:47:10.282Z,13.20
2019-04-27T07:49:40.539Z,13.20
2019-04-27T07:52:09.874Z,13.20
2019-04-27T07:54:41.052Z,13.20
2019-04-27T07:57:11.048Z,13.20
2019-04-27T07:59:42.110Z,13.20
2019-04-27T08:02:11.491Z,13.10
2019-04-27T08:04:40.832Z,13.10
2019-04-27T08:07:10.638Z,13.20
2019-04-27T08:09:40.381Z,13.10
2019-04-27T08:12:10.922Z,13.10
2019-04-27T08:14:40.952Z,13.10
2019-04-27T08:17:10.408Z,13.20
2019-04-27T08:19:40.123Z,13.20
2019-04-27T08:22:09.785Z,13.30
2019-04-27T08:24:39.762Z,13.20
2019-04-27T08:27:29.479Z,13.20
2019-04-27T08:30:32.907Z,13.30
2019-04-27T08:33:03.933Z,13.10
2019-04-27T08:35:33.504Z,13.30
2019-04-27T08:38:03.557Z,13.30
2019-04-27T08:40:32.917Z,13.30
2019-04-27T08:43:02.293Z,13.20
2019-04-27T08:45:31.935Z,13.10
2019-04-27T08:48:01.286Z,13.20
2019-04-27T08:50:30.570Z,13.20
2019-04-27T08:53:00.793Z,13.10
2019-04-27T08:55:30.629Z,13.10
2019-04-27T08:57:59.925Z,13.10
2019-04-27T09:00:29.654Z,13.10
2019-04-27T09:02:59.606Z,13.10
2019-04-27T09:05:29.187Z,13.10
2019-04-27T09:08:18.985Z,13.10
2019-04-27T09:11:18.943Z,13.00
2019-04-27T09:14:25.370Z,13.00
2019-04-27T09:17:09.619Z,12.80
2019-04-27T09:19:56.721Z,12.80
2019-04-27T09:22:26.511Z,12.80
2019-04-27T09:24:56.759Z,12.80
2019-04-27T09:27:26.007Z,12.70
2019-04-27T09:29:55.273Z,12.70
2019-04-27T09:32:24.631Z,12.70
2019-04-27T09:34:54.210Z,12.70
2019-04-27T09:37:23.588Z,12.80
2019-04-27T09:39:52.899Z,12.70
2019-04-27T09:42:22.981Z,12.60
2019-04-27T09:44:52.736Z,12.60
2019-04-27T09:47:22.558Z,12.60
2019-04-27T09:49:52.102Z,12.40
2019-04-27T09:52:26.125Z,12.50
2019-04-27T09:54:55.892Z,12.50
2019-04-27T09:57:25.997Z,12.50
2019-04-27T09:59:56.484Z,12.40
2019-04-27T10:02:26.957Z,12.50
2019-04-27T10:04:56.659Z,12.50
2019-04-27T10:07:26.861Z,12.40
2019-04-27T10:09:56.310Z,12.40
2019-04-27T10:12:26.194Z,12.50
2019-04-27T10:14:56.475Z,12.50
2019-04-27T10:17:26.411Z,12.50
2019-04-27T10:19:57.042Z,12.60
2019-04-27T10:22:39.942Z,12.60
2019-04-27T10:24:58.567Z,12.50
2019-04-27T10:27:28.673Z,12.50
2019-04-27T10:29:58.569Z,12.60
2019-04-27T10:32:28.304Z,12.60
2019-04-27T10:34:57.943Z,12.60
2019-04-27T10:37:27.303Z,12.50
2019-04-27T10:39:57.381Z,12.60
2019-04-27T10:42:27.230Z,12.60
2019-04-27T10:44:57.028Z,12.60
2019-04-27T10:47:26.863Z,12.60
2019-04-27T10:49:56.665Z,12.50
2019-04-27T10:52:26.167Z,12.60
2019-04-27T10:54:57.354Z,12.60
2019-04-27T10:57:27.247Z,12.70
2019-04-27T10:59:57.049Z,12.70
2019-04-27T11:02:26.428Z,12.60
2019-04-27T11:05:21.112Z,12.70
2019-04-27T11:07:50.588Z,12.70
2019-04-27T11:10:20.450Z,12.60
2019-04-27T11:12:50.784Z,12.70
2019-04-27T11:15:20.738Z,12.60
2019-04-27T11:17:50.089Z,12.60
2019-04-27T11:20:19.397Z,12.50
2019-04-27T11:22:48.802Z,12.50
2019-04-27T11:25:18.484Z,12.50
2019-04-27T11:27:47.795Z,12.60
2019-04-27T11:30:17.476Z,12.50
2019-04-27T11:32:46.849Z,12.60
2019-04-27T11:35:27.115Z,12.40
2019-04-27T11:37:56.978Z,12.50
2019-04-27T11:40:26.298Z,12.60
2019-04-27T11:42:57.283Z,12.60
2019-04-27T11:45:28.473Z,12.60
2019-04-27T11:47:58.065Z,12.60
2019-04-27T11:50:28.003Z,12.50
2019-04-27T11:52:58.121Z,12.40
2019-04-27T11:55:27.886Z,12.50
2019-04-27T11:57:58.007Z,12.60
2019-04-27T12:00:27.841Z,12.70
2019-04-27T12:02:57.346Z,12.70
2019-04-27T12:05:27.226Z,12.60
2019-04-27T12:07:56.636Z,12.60
2019-04-27T12:10:26.443Z,12.50
2019-04-27T12:12:56.551Z,12.50
2019-04-27T12:15:26.352Z,12.60
2019-04-27T12:17:56.306Z,12.70
2019-04-27T12:20:26.184Z,12.80
2019-04-27T12:22:55.674Z,12.70
2019-04-27T12:25:25.716Z,12.70
2019-04-27T12:28:13.631Z,12.60
2019-04-27T12:31:09.144Z,12.60
2019-04-27T12:33:39.007Z,12.70
2019-04-27T12:36:09.143Z,12.80
2019-04-27T12:38:38.453Z,12.90
2019-04-27T12:41:07.918Z,13.00
2019-04-27T12:43:37.615Z,12.70
2019-04-27T12:46:07.049Z,12.80
2019-04-27T12:48:37.560Z,12.70
2019-04-27T12:51:07.789Z,12.70
2019-04-27T12:53:51.535Z,12.70
2019-04-27T12:56:36.505Z,12.60
2019-04-27T12:59:15.758Z,12.70
2019-04-27T13:01:46.267Z,12.60
2019-04-27T13:04:16.252Z,12.80
2019-04-27T13:06:47.046Z,12.90
2019-04-27T13:09:17.315Z,13.00
2019-04-27T13:11:47.527Z,12.90
2019-04-27T13:14:17.272Z,13.20
2019-04-27T13:16:47.615Z,13.30
2019-04-27T13:19:18.223Z,13.20
2019-04-27T13:21:47.755Z,13.50
2019-04-27T13:24:17.214Z,13.30
2019-04-27T13:26:46.603Z,13.30
2019-04-27T13:29:16.692Z,13.40
2019-04-27T13:31:46.189Z,13.30
2019-04-27T13:34:16.057Z,13.40
2019-04-27T13:36:45.932Z,13.40
2019-04-27T13:39:15.834Z,13.40
2019-04-27T13:41:46.366Z,13.20
2019-04-27T13:44:16.719Z,13.20
2019-04-27T13:47:06.112Z,13.20
2019-04-27T13:49:57.769Z,13.30
2019-04-27T13:52:29.980Z,13.30
2019-04-27T13:54:59.816Z,13.10
2019-04-27T13:57:29.741Z,13.20
2019-04-27T14:00:01.203Z,13.30
2019-04-27T14:02:32.569Z,13.10
2019-04-27T14:05:03.225Z,13.20
2019-04-27T14:07:33.866Z,13.00
2019-04-27T14:10:03.690Z,13.10
2019-04-27T14:12:33.183Z,13.10
2019-04-27T14:15:02.963Z,13.20
2019-04-27T14:17:32.803Z,13.20
2019-04-27T14:20:02.102Z,13.00
2019-04-27T14:22:31.726Z,12.90
2019-04-27T14:25:01.467Z,12.90
2019-04-27T14:27:38.530Z,13.20
2019-04-27T14:30:08.982Z,13.40
2019-04-27T14:32:42.112Z,13.40
2019-04-27T14:35:10.322Z,13.30
2019-04-27T14:37:40.322Z,13.40
2019-04-27T14:40:09.648Z,13.50
2019-04-27T14:42:39.059Z,13.40
2019-04-27T14:45:09.666Z,13.10
2019-04-27T14:47:39.941Z,13.30
2019-04-27T14:50:09.862Z,13.30
2019-04-27T14:52:40.944Z,13.20
2019-04-27T14:55:10.814Z,13.40
2019-04-27T14:57:40.284Z,13.50
2019-04-27T15:00:12.216Z,13.10
2019-04-27T15:02:41.723Z,13.20
2019-04-27T15:05:11.455Z,13.40
2019-04-27T15:07:41.738Z,13.30
2019-04-27T15:10:11.144Z,13.40
2019-04-27T15:12:40.532Z,13.40
2019-04-27T15:15:10.315Z,13.40
2019-04-27T15:17:40.377Z,13.30
2019-04-27T15:20:14.033Z,13.30
2019-04-27T15:22:45.347Z,13.20
2019-04-27T15:25:15.832Z,13.30
2019-04-27T15:27:50.611Z,13.30
2019-04-27T15:30:25.756Z,13.40
2019-04-27T15:33:17.708Z,13.10
2019-04-27T15:35:54.464Z,13.20
2019-04-27T15:38:26.617Z,13.10
2019-04-27T15:41:10.375Z,13.20
2019-04-27T15:43:41.403Z,13.30
2019-04-27T15:46:10.870Z,13.20
2019-04-27T15:48:40.533Z,13.30
2019-04-27T15:51:17.418Z,13.30
2019-04-27T15:53:41.776Z,13.30
2019-04-27T15:56:12.761Z,13.20
2019-04-27T15:58:42.552Z,13.30
2019-04-27T16:01:12.129Z,13.30
2019-04-27T16:03:41.784Z,13.20
2019-04-27T16:06:11.944Z,13.30
2019-04-27T16:08:45.247Z,13.10
2019-04-27T16:11:16.367Z,13.10
2019-04-27T16:13:45.324Z,13.10
2019-04-27T16:16:15.148Z,13.10
2019-04-27T16:18:44.680Z,13.10
2019-04-27T16:21:14.686Z,13.10
2019-04-27T16:23:44.134Z,12.90
2019-04-27T16:26:15.242Z,12.90
2019-04-27T16:28:49.700Z,13.00
2019-04-27T16:31:16.014Z,13.00
2019-04-27T16:33:45.767Z,13.00
2019-04-27T16:36:15.241Z,13.00
2019-04-27T16:38:58.527Z,13.00
2019-04-27T16:41:28.526Z,13.00
2019-04-27T16:43:58.285Z,13.10
2019-04-27T16:46:34.683Z,13.00
2019-04-27T16:49:01.791Z,13.10
2019-04-27T16:51:36.715Z,13.10
2019-04-27T16:54:04.157Z,13.20
2019-04-27T16:56:34.316Z,13.10
2019-04-27T16:59:25.851Z,13.20
2019-04-27T17:01:41.738Z,13.20
2019-04-27T17:04:11.314Z,13.20
2019-04-27T17:06:45.993Z,13.00
2019-04-27T17:09:11.713Z,13.10
2019-04-27T17:11:43.978Z,13.10
2019-04-27T17:14:34.775Z,13.00
2019-04-27T17:17:23.556Z,13.00
2019-04-27T17:19:58.037Z,12.90
2019-04-27T17:22:28.650Z,12.90
2019-04-27T17:24:58.186Z,12.90
2019-04-27T17:27:50.118Z,12.90
2019-04-27T17:30:19.752Z,12.90
2019-04-27T17:32:55.397Z,12.90
2019-04-27T17:35:24.815Z,12.90
2019-04-27T17:37:54.403Z,12.80
2019-04-27T17:40:25.062Z,12.80
2019-04-27T17:42:55.318Z,12.80
2019-04-27T17:45:25.462Z,12.70
2019-04-27T17:48:00.345Z,12.80
2019-04-27T17:50:28.047Z,12.80
2019-04-27T17:52:59.077Z,12.70
2019-04-27T17:55:28.478Z,12.80
2019-04-27T17:58:00.573Z,12.70
2019-04-27T18:00:33.012Z,12.80
2019-04-27T18:03:00.688Z,12.80
2019-04-27T18:05:30.873Z,12.80
2019-04-27T18:08:00.281Z,12.70
2019-04-27T18:10:30.546Z,12.70
2019-04-27T18:13:00.766Z,12.60
2019-04-27T18:15:30.670Z,12.60
2019-04-27T18:18:02.753Z,12.60
2019-04-27T18:20:32.559Z,12.60
2019-04-27T18:23:08.883Z,12.60
2019-04-27T18:25:43.651Z,12.60
2019-04-27T18:28:16.903Z,12.50
2019-04-27T18:31:15.675Z,12.50
2019-04-27T18:33:43.659Z,12.40
2019-04-27T18:36:14.218Z,12.50
2019-04-27T18:38:44.765Z,12.50
2019-04-27T18:41:14.287Z,12.50
2019-04-27T18:43:50.607Z,12.50
2019-04-27T18:46:22.050Z,12.40
2019-04-27T18:49:06.503Z,12.40
2019-04-27T18:51:45.140Z,12.40
2019-04-27T18:54:15.012Z,12.40
2019-04-27T18:56:45.343Z,12.40
2019-04-27T18:59:14.790Z,12.40
2019-04-27T19:01:44.929Z,12.40
2019-04-27T19:04:14.362Z,12.40
2019-04-27T19:06:43.768Z,12.50
2019-04-27T19:09:14.772Z,12.50
2019-04-27T19:11:54.158Z,12.50
2019-04-27T19:14:16.421Z,12.40
2019-04-27T19:16:45.832Z,12.40
2019-04-27T19:19:15.806Z,12.40
2019-04-27T19:21:45.266Z,12.40
2019-04-27T19:24:15.489Z,12.40
2019-04-27T19:27:21.079Z,12.40
2019-04-27T19:29:53.652Z,12.40
2019-04-27T19:32:23.121Z,12.40
2019-04-27T19:34:54.004Z,12.40
2019-04-27T19:37:23.430Z,12.40
2019-04-27T19:39:53.185Z,12.40
2019-04-27T19:42:23.818Z,12.30
2019-04-27T19:44:53.205Z,12.30
2019-04-27T19:47:23.037Z,12.20
2019-04-27T19:49:52.975Z,12.20
2019-04-27T19:52:22.787Z,12.20
2019-04-27T19:54:52.551Z,12.20
2019-04-27T19:57:31.707Z,12.20
2019-04-27T19:59:56.557Z,12.20
2019-04-27T20:02:26.693Z,12.20
2019-04-27T20:05:05.423Z,12.20
2019-04-27T20:07:35.199Z,12.20
2019-04-27T20:10:08.640Z,12.20
2019-04-27T20:12:38.345Z,12.10
2019-04-27T20:15:07.786Z,12.20
2019-04-27T20:17:37.263Z,12.20
2019-04-27T20:20:07.016Z,12.20
2019-04-27T20:22:36.488Z,12.20
2019-04-27T20:25:06.678Z,12.20
2019-04-27T20:27:46.140Z,12.20
2019-04-27T20:30:08.697Z,12.20
2019-04-27T20:32:38.109Z,12.10
2019-04-27T20:35:07.438Z,12.10
2019-04-27T20:37:37.152Z,12.10
2019-04-27T20:40:06.713Z,12.10
2019-04-27T20:42:35.998Z,12.10
2019-04-27T20:45:05.401Z,12.10
2019-04-27T20:47:35.167Z,12.00
2019-04-27T20:50:04.925Z,11.90
2019-04-27T20:52:59.221Z,11.90
2019-04-27T20:55:29.306Z,12.00
2019-04-27T20:58:02.102Z,11.90
2019-04-27T21:00:29.722Z,12.00
2019-04-27T21:03:18.638Z,11.90
2019-04-27T21:06:11.237Z,11.90
2019-04-27T21:08:41.957Z,11.90
2019-04-27T21:11:11.995Z,11.90
2019-04-27T21:13:41.284Z,11.90
2019-04-27T21:16:13.852Z,11.90
2019-04-27T21:18:43.232Z,11.90
2019-04-27T21:21:12.635Z,11.90
2019-04-27T21:23:42.370Z,11.80
2019-04-27T21:26:12.055Z,11.80
2019-04-27T21:28:43.307Z,11.80
2019-04-27T21:31:13.551Z,11.90
2019-04-27T21:33:43.642Z,11.80
2019-04-27T21:36:12.948Z,11.80
2019-04-27T21:38:42.997Z,11.80
2019-04-27T21:41:12.824Z,11.90
2019-04-27T21:43:43.828Z,11.80
2019-04-27T21:46:14.564Z,11.70
2019-04-27T21:48:44.569Z,11.70
2019-04-27T21:51:14.176Z,11.70
2019-04-27T21:54:11.840Z,11.70
2019-04-27T21:56:41.634Z,11.70
2019-04-27T21:59:11.422Z,11.70
2019-04-27T22:01:41.879Z,11.80
2019-04-27T22:04:11.665Z,11.80
2019-04-27T22:06:41.942Z,11.60
2019-04-27T22:09:13.012Z,11.60
2019-04-27T22:11:42.359Z,11.60
2019-04-27T22:14:11.869Z,11.60
2019-04-27T22:16:41.937Z,11.60
2019-04-27T22:19:12.126Z,11.60
2019-04-27T22:21:42.030Z,11.60
2019-04-27T22:24:21.264Z,11.60
2019-04-27T22:26:51.766Z,11.60
2019-04-27T22:29:22.181Z,11.50
2019-04-27T22:31:52.342Z,11.60
2019-04-27T22:34:22.363Z,11.60
2019-04-27T22:36:52.150Z,11.50
2019-04-27T22:39:26.754Z,11.50
2019-04-27T22:42:17.968Z,11.50
2019-04-27T22:44:54.083Z,11.50
2019-04-27T22:47:24.129Z,11.60
2019-04-27T22:49:53.917Z,11.50
2019-04-27T22:52:23.345Z,11.50
2019-04-27T22:54:52.712Z,11.50
2019-04-27T22:57:34.035Z,11.40
2019-04-27T23:00:28.320Z,11.40
2019-04-27T23:03:00.607Z,11.40
2019-04-27T23:05:32.019Z,11.40
2019-04-27T23:08:02.676Z,11.40
2019-04-27T23:10:32.358Z,11.30
2019-04-27T23:13:02.013Z,11.30
2019-04-27T23:15:37.629Z,11.30
2019-04-27T23:18:07.518Z,11.30
2019-04-27T23:20:36.859Z,11.30
2019-04-27T23:23:06.155Z,11.30
2019-04-27T23:25:36.287Z,11.20
2019-04-27T23:28:05.651Z,11.20
2019-04-27T23:30:51.850Z,11.20
2019-04-27T23:33:21.641Z,11.30
2019-04-27T23:35:51.743Z,11.30
2019-04-27T23:38:21.669Z,11.40
2019-04-27T23:40:52.636Z,11.30
2019-04-27T23:43:22.370Z,11.30
2019-04-27T23:45:52.289Z,11.30
2019-04-27T23:48:22.702Z,11.30
2019-04-27T23:50:56.569Z,11.20
2019-04-27T23:53:31.656Z,11.20
2019-04-27T23:56:01.203Z,11.20
2019-04-27T23:58:31.598Z,11.20
